sensor_id;sensor_type;location;lat;lon;timestamp;P1;durP1;ratioP1;P2;durP2;ratioP2
21663;SDS011;10993;52.510;13.456;2022-10-12T00:04:13;13.30;;;6.03;;
21663;SDS011;10993;52.510;13.456;2022-10-12T00:09:14;13.88;;;5.38;;
21663;SDS011;10993;52.510;13.456;2022-10-12T00:14:14;13.35;;;5.60;;
21663;SDS011;10993;52.510;13.456;2022-10-12T00:19:16;11.95;;;6.07;;
21663;SDS011;10993;52.510;13.456;2022-10-12T00:24:16;10.38;;;4.88;;
21663;SDS011;10993;52.510;13.456;2022-10-12T00:29:16;13.57;;;6.10;;
21663;SDS011;10993;52.510;13.456;2022-10-12T00:34:18;17.33;;;6.30;;
21663;SDS011;10993;52.510;13.456;2022-10-12T00:39:18;11.77;;;4.93;;
21663;SDS011;10993;52.510;13.456;2022-10-12T00:44:38;9.98;;;4.65;;
21663;SDS011;10993;52.510;13.456;2022-10-12T00:49:42;11.20;;;5.03;;
21663;SDS011;10993;52.510;13.456;2022-10-12T00:54:47;9.30;;;4.22;;
21663;SDS011;10993;52.510;13.456;2022-10-12T00:59:51;10.68;;;4.28;;
21663;SDS011;10993;52.510;13.456;2022-10-12T01:04:55;8.80;;;4.38;;
21663;SDS011;10993;52.510;13.456;2022-10-12T01:09:56;9.05;;;4.13;;
21663;SDS011;10993;52.510;13.456;2022-10-12T01:14:57;10.57;;;4.97;;
21663;SDS011;10993;52.510;13.456;2022-10-12T01:20:10;13.30;;;5.13;;
21663;SDS011;10993;52.510;13.456;2022-10-12T01:25:35;8.90;;;4.60;;
21663;SDS011;10993;52.510;13.456;2022-10-12T01:30:56;11.82;;;5.15;;
21663;SDS011;10993;52.510;13.456;2022-10-12T01:36:03;12.65;;;4.80;;
21663;SDS011;10993;52.510;13.456;2022-10-12T01:41:09;11.38;;;5.43;;
21663;SDS011;10993;52.510;13.456;2022-10-12T01:46:40;12.35;;;5.25;;
21663;SDS011;10993;52.510;13.456;2022-10-12T01:51:45;10.55;;;4.97;;
21663;SDS011;10993;52.510;13.456;2022-10-12T01:57:00;14.88;;;4.82;;
21663;SDS011;10993;52.510;13.456;2022-10-12T02:02:05;11.05;;;4.35;;
21663;SDS011;10993;52.510;13.456;2022-10-12T02:07:18;11.98;;;5.50;;
21663;SDS011;10993;52.510;13.456;2022-10-12T02:12:24;12.07;;;5.25;;
21663;SDS011;10993;52.510;13.456;2022-10-12T02:17:29;10.85;;;5.32;;
21663;SDS011;10993;52.510;13.456;2022-10-12T02:22:33;10.60;;;4.78;;
21663;SDS011;10993;52.510;13.456;2022-10-12T02:27:37;10.95;;;4.97;;
21663;SDS011;10993;52.510;13.456;2022-10-12T02:32:43;9.60;;;5.28;;
21663;SDS011;10993;52.510;13.456;2022-10-12T02:37:50;9.68;;;4.68;;
21663;SDS011;10993;52.510;13.456;2022-10-12T02:42:54;9.88;;;4.95;;
21663;SDS011;10993;52.510;13.456;2022-10-12T02:47:59;8.90;;;4.57;;
21663;SDS011;10993;52.510;13.456;2022-10-12T02:53:00;14.27;;;5.22;;
21663;SDS011;10993;52.510;13.456;2022-10-12T02:58:00;9.80;;;4.97;;
21663;SDS011;10993;52.510;13.456;2022-10-12T03:03:02;12.27;;;5.07;;
21663;SDS011;10993;52.510;13.456;2022-10-12T03:08:02;8.45;;;4.35;;
21663;SDS011;10993;52.510;13.456;2022-10-12T03:13:04;10.05;;;5.10;;
21663;SDS011;10993;52.510;13.456;2022-10-12T03:18:06;9.68;;;4.80;;
21663;SDS011;10993;52.510;13.456;2022-10-12T03:23:06;11.00;;;5.10;;
21663;SDS011;10993;52.510;13.456;2022-10-12T03:28:07;14.93;;;5.03;;
21663;SDS011;10993;52.510;13.456;2022-10-12T03:33:08;11.05;;;5.55;;
21663;SDS011;10993;52.510;13.456;2022-10-12T03:38:09;8.07;;;4.22;;
21663;SDS011;10993;52.510;13.456;2022-10-12T03:43:10;8.20;;;4.32;;
21663;SDS011;10993;52.510;13.456;2022-10-12T03:48:12;9.63;;;4.78;;
21663;SDS011;10993;52.510;13.456;2022-10-12T03:53:13;10.65;;;4.13;;
21663;SDS011;10993;52.510;13.456;2022-10-12T03:58:13;7.82;;;4.10;;
21663;SDS011;10993;52.510;13.456;2022-10-12T04:03:15;11.90;;;4.18;;
21663;SDS011;10993;52.510;13.456;2022-10-12T04:08:15;9.93;;;4.53;;
21663;SDS011;10993;52.510;13.456;2022-10-12T04:13:16;8.88;;;4.07;;
21663;SDS011;10993;52.510;13.456;2022-10-12T04:18:18;9.00;;;4.50;;
21663;SDS011;10993;52.510;13.456;2022-10-12T04:23:18;9.93;;;4.47;;
21663;SDS011;10993;52.510;13.456;2022-10-12T04:28:18;8.00;;;4.07;;
21663;SDS011;10993;52.510;13.456;2022-10-12T04:33:20;7.35;;;3.63;;
21663;SDS011;10993;52.510;13.456;2022-10-12T04:38:20;13.77;;;4.75;;
21663;SDS011;10993;52.510;13.456;2022-10-12T04:43:21;8.82;;;4.55;;
21663;SDS011;10993;52.510;13.456;2022-10-12T04:48:23;8.65;;;4.20;;
21663;SDS011;10993;52.510;13.456;2022-10-12T04:53:23;7.13;;;4.07;;
21663;SDS011;10993;52.510;13.456;2022-10-12T04:58:24;8.98;;;5.00;;
21663;SDS011;10993;52.510;13.456;2022-10-12T05:03:25;10.65;;;5.47;;
21663;SDS011;10993;52.510;13.456;2022-10-12T05:08:26;11.00;;;4.70;;
21663;SDS011;10993;52.510;13.456;2022-10-12T05:13:26;11.73;;;4.90;;
21663;SDS011;10993;52.510;13.456;2022-10-12T05:18:31;9.48;;;4.53;;
21663;SDS011;10993;52.510;13.456;2022-10-12T05:23:31;9.80;;;4.50;;
21663;SDS011;10993;52.510;13.456;2022-10-12T05:28:31;10.43;;;4.82;;
21663;SDS011;10993;52.510;13.456;2022-10-12T05:33:34;11.60;;;5.82;;
21663;SDS011;10993;52.510;13.456;2022-10-12T05:38:34;10.40;;;5.13;;
21663;SDS011;10993;52.510;13.456;2022-10-12T05:43:34;10.07;;;5.72;;
21663;SDS011;10993;52.510;13.456;2022-10-12T05:48:36;11.82;;;5.32;;
21663;SDS011;10993;52.510;13.456;2022-10-12T05:53:36;9.45;;;4.70;;
21663;SDS011;10993;52.510;13.456;2022-10-12T05:58:37;8.30;;;4.13;;
21663;SDS011;10993;52.510;13.456;2022-10-12T06:03:38;14.95;;;4.78;;
21663;SDS011;10993;52.510;13.456;2022-10-12T06:08:39;17.15;;;5.05;;
21663;SDS011;10993;52.510;13.456;2022-10-12T06:13:39;11.43;;;4.97;;
21663;SDS011;10993;52.510;13.456;2022-10-12T06:18:43;17.50;;;4.45;;
21663;SDS011;10993;52.510;13.456;2022-10-12T06:23:43;11.23;;;4.88;;
21663;SDS011;10993;52.510;13.456;2022-10-12T06:28:44;11.50;;;4.97;;
21663;SDS011;10993;52.510;13.456;2022-10-12T06:33:45;9.43;;;4.40;;
21663;SDS011;10993;52.510;13.456;2022-10-12T06:38:46;10.95;;;4.68;;
21663;SDS011;10993;52.510;13.456;2022-10-12T06:43:46;9.88;;;4.80;;
21663;SDS011;10993;52.510;13.456;2022-10-12T06:48:48;11.15;;;4.47;;
21663;SDS011;10993;52.510;13.456;2022-10-12T06:53:48;14.02;;;4.43;;
21663;SDS011;10993;52.510;13.456;2022-10-12T06:58:52;8.70;;;4.55;;
21663;SDS011;10993;52.510;13.456;2022-10-12T07:03:54;11.95;;;4.80;;
21663;SDS011;10993;52.510;13.456;2022-10-12T07:08:54;7.10;;;3.90;;
21663;SDS011;10993;52.510;13.456;2022-10-12T07:13:55;8.10;;;4.00;;
21663;SDS011;10993;52.510;13.456;2022-10-12T07:18:57;19.30;;;7.60;;
21663;SDS011;10993;52.510;13.456;2022-10-12T07:23:57;7.35;;;2.83;;
21663;SDS011;10993;52.510;13.456;2022-10-12T07:28:58;7.63;;;3.53;;
21663;SDS011;10993;52.510;13.456;2022-10-12T07:34:02;8.98;;;3.63;;
21663;SDS011;10993;52.510;13.456;2022-10-12T07:39:02;12.55;;;3.88;;
21663;SDS011;10993;52.510;13.456;2022-10-12T07:44:03;8.20;;;3.50;;
21663;SDS011;10993;52.510;13.456;2022-10-12T07:49:05;7.88;;;3.15;;
21663;SDS011;10993;52.510;13.456;2022-10-12T07:54:05;5.97;;;3.08;;
21663;SDS011;10993;52.510;13.456;2022-10-12T07:59:06;8.73;;;3.50;;
21663;SDS011;10993;52.510;13.456;2022-10-12T08:04:07;7.57;;;3.63;;
21663;SDS011;10993;52.510;13.456;2022-10-12T08:09:09;6.07;;;2.65;;
21663;SDS011;10993;52.510;13.456;2022-10-12T08:14:11;7.57;;;2.80;;
21663;SDS011;10993;52.510;13.456;2022-10-12T08:19:14;5.45;;;2.47;;
21663;SDS011;10993;52.510;13.456;2022-10-12T08:24:15;6.05;;;2.80;;
21663;SDS011;10993;52.510;13.456;2022-10-12T08:29:15;5.70;;;3.13;;
21663;SDS011;10993;52.510;13.456;2022-10-12T08:34:17;5.47;;;2.88;;
21663;SDS011;10993;52.510;13.456;2022-10-12T08:39:17;9.35;;;3.10;;
21663;SDS011;10993;52.510;13.456;2022-10-12T08:44:22;6.22;;;2.40;;
21663;SDS011;10993;52.510;13.456;2022-10-12T08:49:33;5.90;;;2.20;;
21663;SDS011;10993;52.510;13.456;2022-10-12T08:54:37;7.90;;;2.22;;
21663;SDS011;10993;52.510;13.456;2022-10-12T08:59:40;4.95;;;2.63;;
21663;SDS011;10993;52.510;13.456;2022-10-12T09:04:46;5.40;;;2.40;;
21663;SDS011;10993;52.510;13.456;2022-10-12T09:09:56;4.03;;;2.25;;
21663;SDS011;10993;52.510;13.456;2022-10-12T09:15:08;7.47;;;2.42;;
21663;SDS011;10993;52.510;13.456;2022-10-12T09:20:17;6.35;;;2.38;;
21663;SDS011;10993;52.510;13.456;2022-10-12T09:25:21;4.10;;;2.03;;
21663;SDS011;10993;52.510;13.456;2022-10-12T09:30:25;6.10;;;2.58;;
21663;SDS011;10993;52.510;13.456;2022-10-12T09:35:26;3.83;;;1.85;;
21663;SDS011;10993;52.510;13.456;2022-10-12T09:40:28;4.40;;;1.90;;
21663;SDS011;10993;52.510;13.456;2022-10-12T09:45:31;7.68;;;1.95;;
21663;SDS011;10993;52.510;13.456;2022-10-12T09:50:38;4.07;;;1.63;;
21663;SDS011;10993;52.510;13.456;2022-10-12T09:55:41;4.05;;;1.20;;
21663;SDS011;10993;52.510;13.456;2022-10-12T10:06:22;6.43;;;1.08;;
21663;SDS011;10993;52.510;13.456;2022-10-12T10:11:25;2.78;;;0.90;;
21663;SDS011;10993;52.510;13.456;2022-10-12T10:16:27;4.00;;;1.10;;
21663;SDS011;10993;52.510;13.456;2022-10-12T10:21:31;4.78;;;1.30;;
21663;SDS011;10993;52.510;13.456;2022-10-12T10:26:49;2.65;;;1.10;;
21663;SDS011;10993;52.510;13.456;2022-10-12T10:31:54;2.35;;;0.85;;
21663;SDS011;10993;52.510;13.456;2022-10-12T10:37:14;2.97;;;0.93;;
21663;SDS011;10993;52.510;13.456;2022-10-12T10:42:19;3.70;;;1.05;;
21663;SDS011;10993;52.510;13.456;2022-10-12T10:47:23;2.60;;;0.60;;
21663;SDS011;10993;52.510;13.456;2022-10-12T10:52:25;2.75;;;0.80;;
21663;SDS011;10993;52.510;13.456;2022-10-12T10:57:29;3.88;;;0.95;;
21663;SDS011;10993;52.510;13.456;2022-10-12T11:02:32;2.25;;;0.63;;
21663;SDS011;10993;52.510;13.456;2022-10-12T11:07:43;3.90;;;1.00;;
21663;SDS011;10993;52.510;13.456;2022-10-12T11:12:49;5.05;;;0.95;;
21663;SDS011;10993;52.510;13.456;2022-10-12T11:17:56;4.28;;;0.77;;
21663;SDS011;10993;52.510;13.456;2022-10-12T11:23:02;1.92;;;0.75;;
21663;SDS011;10993;52.510;13.456;2022-10-12T11:28:09;4.78;;;0.77;;
21663;SDS011;10993;52.510;13.456;2022-10-12T11:33:16;2.75;;;1.00;;
21663;SDS011;10993;52.510;13.456;2022-10-12T11:38:23;4.00;;;1.00;;
21663;SDS011;10993;52.510;13.456;2022-10-12T11:43:30;2.55;;;0.88;;
21663;SDS011;10993;52.510;13.456;2022-10-12T11:48:38;4.50;;;0.68;;
21663;SDS011;10993;52.510;13.456;2022-10-12T11:53:47;3.45;;;0.70;;
21663;SDS011;10993;52.510;13.456;2022-10-12T11:58:56;2.65;;;0.70;;
21663;SDS011;10993;52.510;13.456;2022-10-12T12:04:06;3.83;;;0.60;;
21663;SDS011;10993;52.510;13.456;2022-10-12T12:09:19;4.80;;;0.90;;
21663;SDS011;10993;52.510;13.456;2022-10-12T12:14:43;5.40;;;1.00;;
21663;SDS011;10993;52.510;13.456;2022-10-12T12:19:47;4.85;;;1.08;;
21663;SDS011;10993;52.510;13.456;2022-10-12T12:24:54;3.35;;;0.70;;
21663;SDS011;10993;52.510;13.456;2022-10-12T12:30:04;3.20;;;0.98;;
21663;SDS011;10993;52.510;13.456;2022-10-12T12:35:22;3.30;;;1.00;;
21663;SDS011;10993;52.510;13.456;2022-10-12T12:40:27;2.33;;;0.63;;
21663;SDS011;10993;52.510;13.456;2022-10-12T12:45:37;2.05;;;0.55;;
21663;SDS011;10993;52.510;13.456;2022-10-12T12:50:39;4.55;;;1.17;;
21663;SDS011;10993;52.510;13.456;2022-10-12T12:55:46;1.98;;;0.80;;
21663;SDS011;10993;52.510;13.456;2022-10-12T13:01:02;1.95;;;0.77;;
21663;SDS011;10993;52.510;13.456;2022-10-12T13:06:26;4.55;;;0.77;;
21663;SDS011;10993;52.510;13.456;2022-10-12T13:11:56;5.00;;;0.80;;
21663;SDS011;10993;52.510;13.456;2022-10-12T13:17:20;3.13;;;0.65;;
21663;SDS011;10993;52.510;13.456;2022-10-12T13:22:33;6.32;;;0.90;;
21663;SDS011;10993;52.510;13.456;2022-10-12T13:27:38;3.70;;;0.80;;
21663;SDS011;10993;52.510;13.456;2022-10-12T13:32:44;2.47;;;0.70;;
21663;SDS011;10993;52.510;13.456;2022-10-12T13:37:58;6.97;;;0.70;;
21663;SDS011;10993;52.510;13.456;2022-10-12T13:48:32;2.35;;;0.57;;
21663;SDS011;10993;52.510;13.456;2022-10-12T13:53:33;5.05;;;0.60;;
21663;SDS011;10993;52.510;13.456;2022-10-12T13:58:36;2.90;;;0.52;;
21663;SDS011;10993;52.510;13.456;2022-10-12T14:03:37;6.80;;;1.10;;
21663;SDS011;10993;52.510;13.456;2022-10-12T14:08:39;3.22;;;0.73;;
21663;SDS011;10993;52.510;13.456;2022-10-12T14:13:43;4.28;;;0.75;;
21663;SDS011;10993;52.510;13.456;2022-10-12T14:18:45;5.00;;;0.80;;
21663;SDS011;10993;52.510;13.456;2022-10-12T14:23:46;4.60;;;0.68;;
21663;SDS011;10993;52.510;13.456;2022-10-12T14:28:49;2.00;;;0.60;;
21663;SDS011;10993;52.510;13.456;2022-10-12T14:33:50;2.78;;;0.50;;
21663;SDS011;10993;52.510;13.456;2022-10-12T14:38:51;5.00;;;0.90;;
21663;SDS011;10993;52.510;13.456;2022-10-12T14:44:02;1.50;;;0.60;;
21663;SDS011;10993;52.510;13.456;2022-10-12T14:49:04;4.38;;;0.75;;
21663;SDS011;10993;52.510;13.456;2022-10-12T14:54:05;6.78;;;0.90;;
21663;SDS011;10993;52.510;13.456;2022-10-12T14:59:07;3.28;;;0.70;;
21663;SDS011;10993;52.510;13.456;2022-10-12T15:04:08;2.92;;;0.60;;
21663;SDS011;10993;52.510;13.456;2022-10-12T15:09:10;2.13;;;0.60;;
21663;SDS011;10993;52.510;13.456;2022-10-12T15:14:12;2.27;;;0.97;;
21663;SDS011;10993;52.510;13.456;2022-10-12T15:19:13;3.38;;;0.93;;
21663;SDS011;10993;52.510;13.456;2022-10-12T15:24:13;4.28;;;1.05;;
21663;SDS011;10993;52.510;13.456;2022-10-12T15:29:15;2.50;;;0.88;;
21663;SDS011;10993;52.510;13.456;2022-10-12T15:34:16;3.25;;;1.08;;
21663;SDS011;10993;52.510;13.456;2022-10-12T15:39:16;3.00;;;1.17;;
21663;SDS011;10993;52.510;13.456;2022-10-12T15:44:18;5.15;;;0.80;;
21663;SDS011;10993;52.510;13.456;2022-10-12T15:49:18;2.15;;;1.08;;
21663;SDS011;10993;52.510;13.456;2022-10-12T15:54:22;5.30;;;1.10;;
21663;SDS011;10993;52.510;13.456;2022-10-12T15:59:24;4.78;;;1.05;;
21663;SDS011;10993;52.510;13.456;2022-10-12T16:04:24;3.30;;;1.20;;
21663;SDS011;10993;52.510;13.456;2022-10-12T16:09:25;4.75;;;0.93;;
21663;SDS011;10993;52.510;13.456;2022-10-12T16:14:29;5.80;;;1.40;;
21663;SDS011;10993;52.510;13.456;2022-10-12T16:19:29;7.22;;;1.60;;
21663;SDS011;10993;52.510;13.456;2022-10-12T16:24:30;5.38;;;1.70;;
21663;SDS011;10993;52.510;13.456;2022-10-12T16:29:31;4.10;;;1.30;;
21663;SDS011;10993;52.510;13.456;2022-10-12T16:34:32;5.60;;;1.42;;
21663;SDS011;10993;52.510;13.456;2022-10-12T16:39:32;5.05;;;1.60;;
21663;SDS011;10993;52.510;13.456;2022-10-12T16:44:34;3.60;;;1.42;;
21663;SDS011;10993;52.510;13.456;2022-10-12T16:49:34;5.18;;;1.63;;
21663;SDS011;10993;52.510;13.456;2022-10-12T16:54:35;5.72;;;2.28;;
21663;SDS011;10993;52.510;13.456;2022-10-12T16:59:36;6.40;;;2.00;;
21663;SDS011;10993;52.510;13.456;2022-10-12T17:04:37;4.45;;;1.70;;
21663;SDS011;10993;52.510;13.456;2022-10-12T17:09:37;6.03;;;2.17;;
21663;SDS011;10993;52.510;13.456;2022-10-12T17:14:39;4.50;;;1.95;;
21663;SDS011;10993;52.510;13.456;2022-10-12T17:19:42;6.25;;;2.40;;
21663;SDS011;10993;52.510;13.456;2022-10-12T17:24:43;8.05;;;2.35;;
21663;SDS011;10993;52.510;13.456;2022-10-12T17:29:44;8.32;;;2.92;;
21663;SDS011;10993;52.510;13.456;2022-10-12T17:34:45;7.63;;;2.28;;
21663;SDS011;10993;52.510;13.456;2022-10-12T17:39:45;5.15;;;2.33;;
21663;SDS011;10993;52.510;13.456;2022-10-12T17:44:48;6.03;;;2.65;;
21663;SDS011;10993;52.510;13.456;2022-10-12T17:49:49;6.03;;;2.40;;
21663;SDS011;10993;52.510;13.456;2022-10-12T17:54:49;8.75;;;2.80;;
21663;SDS011;10993;52.510;13.456;2022-10-12T17:59:51;6.50;;;2.58;;
21663;SDS011;10993;52.510;13.456;2022-10-12T18:04:51;7.53;;;2.85;;
21663;SDS011;10993;52.510;13.456;2022-10-12T18:09:52;11.05;;;3.15;;
21663;SDS011;10993;52.510;13.456;2022-10-12T18:14:53;8.57;;;3.03;;
21663;SDS011;10993;52.510;13.456;2022-10-12T18:19:54;6.28;;;2.70;;
21663;SDS011;10993;52.510;13.456;2022-10-12T18:24:54;6.55;;;2.97;;
21663;SDS011;10993;52.510;13.456;2022-10-12T18:29:56;10.10;;;3.33;;
21663;SDS011;10993;52.510;13.456;2022-10-12T18:34:56;7.00;;;2.45;;
21663;SDS011;10993;52.510;13.456;2022-10-12T18:39:57;11.27;;;3.17;;
21663;SDS011;10993;52.510;13.456;2022-10-12T18:44:59;6.15;;;2.42;;
21663;SDS011;10993;52.510;13.456;2022-10-12T18:49:59;7.07;;;3.00;;
21663;SDS011;10993;52.510;13.456;2022-10-12T18:54:59;7.40;;;2.63;;
21663;SDS011;10993;52.510;13.456;2022-10-12T19:00:02;6.35;;;2.70;;
21663;SDS011;10993;52.510;13.456;2022-10-12T19:05:03;8.50;;;2.85;;
21663;SDS011;10993;52.510;13.456;2022-10-12T19:10:04;6.68;;;2.50;;
21663;SDS011;10993;52.510;13.456;2022-10-12T19:15:09;7.93;;;2.85;;
21663;SDS011;10993;52.510;13.456;2022-10-12T19:20:12;5.70;;;2.67;;
21663;SDS011;10993;52.510;13.456;2022-10-12T19:25:13;8.68;;;2.97;;
21663;SDS011;10993;52.510;13.456;2022-10-12T19:30:14;7.28;;;3.10;;
21663;SDS011;10993;52.510;13.456;2022-10-12T19:35:15;5.00;;;2.50;;
21663;SDS011;10993;52.510;13.456;2022-10-12T19:40:21;4.45;;;2.28;;
21663;SDS011;10993;52.510;13.456;2022-10-12T19:45:22;6.88;;;2.90;;
21663;SDS011;10993;52.510;13.456;2022-10-12T19:50:23;8.23;;;2.97;;
21663;SDS011;10993;52.510;13.456;2022-10-12T19:55:23;6.35;;;2.78;;
21663;SDS011;10993;52.510;13.456;2022-10-12T20:00:25;8.35;;;3.22;;
21663;SDS011;10993;52.510;13.456;2022-10-12T20:05:25;12.55;;;3.72;;
21663;SDS011;10993;52.510;13.456;2022-10-12T20:10:26;10.57;;;3.80;;
21663;SDS011;10993;52.510;13.456;2022-10-12T20:15:29;5.88;;;3.10;;
21663;SDS011;10993;52.510;13.456;2022-10-12T20:20:30;8.23;;;3.17;;
21663;SDS011;10993;52.510;13.456;2022-10-12T20:25:32;7.90;;;3.55;;
21663;SDS011;10993;52.510;13.456;2022-10-12T20:30:34;7.55;;;3.08;;
21663;SDS011;10993;52.510;13.456;2022-10-12T20:35:34;9.63;;;3.45;;
21663;SDS011;10993;52.510;13.456;2022-10-12T20:40:36;9.25;;;3.80;;
21663;SDS011;10993;52.510;13.456;2022-10-12T20:45:40;8.02;;;3.05;;
21663;SDS011;10993;52.510;13.456;2022-10-12T20:50:41;8.88;;;3.10;;
21663;SDS011;10993;52.510;13.456;2022-10-12T20:55:41;8.82;;;3.47;;
21663;SDS011;10993;52.510;13.456;2022-10-12T21:00:43;7.75;;;3.58;;
21663;SDS011;10993;52.510;13.456;2022-10-12T21:05:43;9.85;;;4.00;;
21663;SDS011;10993;52.510;13.456;2022-10-12T21:10:45;9.48;;;3.47;;
21663;SDS011;10993;52.510;13.456;2022-10-12T21:15:49;8.60;;;2.78;;
21663;SDS011;10993;52.510;13.456;2022-10-12T21:20:54;7.68;;;3.13;;
21663;SDS011;10993;52.510;13.456;2022-10-12T21:25:55;6.57;;;2.78;;
21663;SDS011;10993;52.510;13.456;2022-10-12T21:30:58;8.57;;;2.80;;
21663;SDS011;10993;52.510;13.456;2022-10-12T21:36:04;6.95;;;2.72;;
21663;SDS011;10993;52.510;13.456;2022-10-12T21:41:05;8.20;;;3.00;;
21663;SDS011;10993;52.510;13.456;2022-10-12T21:46:09;7.95;;;2.83;;
21663;SDS011;10993;52.510;13.456;2022-10-12T21:51:11;8.20;;;3.03;;
21663;SDS011;10993;52.510;13.456;2022-10-12T21:56:14;4.97;;;2.53;;
21663;SDS011;10993;52.510;13.456;2022-10-12T22:01:18;10.32;;;3.28;;
21663;SDS011;10993;52.510;13.456;2022-10-12T22:06:20;5.97;;;3.00;;
21663;SDS011;10993;52.510;13.456;2022-10-12T22:11:22;9.43;;;4.10;;
21663;SDS011;10993;52.510;13.456;2022-10-12T22:16:24;8.52;;;3.13;;
21663;SDS011;10993;52.510;13.456;2022-10-12T22:21:26;7.28;;;3.03;;
21663;SDS011;10993;52.510;13.456;2022-10-12T22:26:28;7.03;;;2.55;;
21663;SDS011;10993;52.510;13.456;2022-10-12T22:31:30;8.50;;;3.03;;
21663;SDS011;10993;52.510;13.456;2022-10-12T22:36:31;8.45;;;2.92;;
21663;SDS011;10993;52.510;13.456;2022-10-12T22:41:32;5.20;;;2.63;;
21663;SDS011;10993;52.510;13.456;2022-10-12T22:46:34;7.20;;;3.40;;
21663;SDS011;10993;52.510;13.456;2022-10-12T22:51:35;5.45;;;2.55;;
21663;SDS011;10993;52.510;13.456;2022-10-12T22:56:38;8.05;;;2.83;;
21663;SDS011;10993;52.510;13.456;2022-10-12T23:01:41;6.47;;;2.53;;
21663;SDS011;10993;52.510;13.456;2022-10-12T23:06:41;8.05;;;3.10;;
21663;SDS011;10993;52.510;13.456;2022-10-12T23:11:41;7.80;;;2.72;;
21663;SDS011;10993;52.510;13.456;2022-10-12T23:16:43;8.13;;;2.40;;
21663;SDS011;10993;52.510;13.456;2022-10-12T23:21:43;6.20;;;2.63;;
21663;SDS011;10993;52.510;13.456;2022-10-12T23:26:46;6.70;;;2.58;;
21663;SDS011;10993;52.510;13.456;2022-10-12T23:31:47;6.60;;;2.38;;
21663;SDS011;10993;52.510;13.456;2022-10-12T23:36:47;6.80;;;2.55;;
21663;SDS011;10993;52.510;13.456;2022-10-12T23:41:48;5.13;;;2.38;;
21663;SDS011;10993;52.510;13.456;2022-10-12T23:46:50;7.45;;;2.92;;
21663;SDS011;10993;52.510;13.456;2022-10-12T23:51:50;7.32;;;2.97;;
21663;SDS011;10993;52.510;13.456;2022-10-12T23:56:51;7.50;;;2.70;;
